Pevensey, United Kingdom
Current Conditions -  °F | °C
As of 4:20 PM on Friday 21 Nov 2014 (Local Time) from EGKA Reporting Station
Haze Haze  
Wind Chill: 50°   Ceiling: 1000
Heat Index: 50°   Visibility: 2.8mi
Dew Point: 46°   Wind: 12mph
Humidity: 87%   Direction: 110°ESE
Pressure: 29.97"   Gusts: NA
Location:  50.82°N, 0.32°E
Report Text: EGKA 211620Z 11010KT 4500 HZ BKN010 10/08 Q1015
Loading
Personal Weather Stations






























Interactive Weather Map New forecast layout! Learn more

10-Day Weather Forecast

Advertisements
Track Severe Weather on mobile